Time;durP1;ratioP1;P1;durP2;ratioP2;P2;SDS_P1;SDS_P2;PMS_P1;PMS_P2;Temp;Humidity;BMP_temperature;BMP_pressure;BME280_temperature;BME280_humidity;BME280_pressure;Samples;Min_cycle;Max_cycle;Signal;HPM_P1;HPM_P2
2024/02/20 00:01:36;;;;;;;78.90;11.05;;;;;;;;;;5018336;28;20155;-66
2024/02/20 00:04:02;;;;;;;66.22;9.07;;;;;;;;;;5013226;28;20053;-66
2024/02/20 00:06:29;;;;;;;70.63;9.27;;;;;;;;;;5018767;28;20091;-66
2024/02/20 00:08:55;;;;;;;80.15;8.77;;;;;;;;;;5016062;28;20132;-66
2024/02/20 00:11:21;;;;;;;73.15;8.88;;;;;;;;;;5015636;28;20178;-66
2024/02/20 00:13:48;;;;;;;87.32;8.40;;;;;;;;;;5013585;28;20045;-66
2024/02/20 00:16:14;;;;;;;67.05;7.53;;;;;;;;;;5005210;28;20160;-66
2024/02/20 00:18:40;;;;;;;71.05;9.05;;;;;;;;;;5001989;28;20737;-66
2024/02/20 00:21:07;;;;;;;73.57;8.68;;;;;;;;;;4997583;28;20044;-66
2024/02/20 00:23:33;;;;;;;81.55;9.73;;;;;;;;;;4999618;28;20136;-66
2024/02/20 00:26:01;;;;;;;70.75;9.13;;;;;;;;;;5022055;28;20068;-66
2024/02/20 00:28:27;;;;;;;45.35;8.45;;;;;;;;;;5025997;28;20410;-66
2024/02/20 00:30:53;;;;;;;55.83;8.45;;;;;;;;;;5027572;28;20044;-66
2024/02/20 00:33:19;;;;;;;50.97;6.88;;;;;;;;;;5021308;28;20409;-66
2024/02/20 00:35:46;;;;;;;66.35;8.18;;;;;;;;;;5022024;28;20184;-66
2024/02/20 00:38:12;;;;;;;69.43;10.10;;;;;;;;;;5021799;28;20132;-66
2024/02/20 00:40:39;;;;;;;61.80;7.80;;;;;;;;;;5018077;28;20052;-66
2024/02/20 00:43:05;;;;;;;61.78;8.18;;;;;;;;;;5021154;28;21153;-66
2024/02/20 00:45:32;;;;;;;55.40;9.98;;;;;;;;;;5024444;28;20109;-65
2024/02/20 00:47:58;;;;;;;56.10;6.95;;;;;;;;;;5020276;28;20037;-66
2024/02/20 00:50:24;;;;;;;64.63;9.68;;;;;;;;;;5019929;28;20145;-66
2024/02/20 00:52:50;;;;;;;56.13;7.82;;;;;;;;;;5018850;28;20076;-66
2024/02/20 00:55:17;;;;;;;73.45;8.18;;;;;;;;;;5019468;28;20037;-66
2024/02/20 00:57:43;;;;;;;64.75;9.15;;;;;;;;;;4999175;28;20580;-66
2024/02/20 01:00:13;;;;;;;66.80;9.40;;;;;;;;;;5019776;28;20052;-66
2024/02/20 01:02:40;;;;;;;66.15;8.30;;;;;;;;;;5022655;28;20068;-66
2024/02/20 01:05:07;;;;;;;62.97;9.00;;;;;;;;;;5021810;28;20471;-66
2024/02/20 01:07:33;;;;;;;66.93;9.95;;;;;;;;;;5019832;28;20050;-66
2024/02/20 01:10:00;;;;;;;56.13;7.82;;;;;;;;;;5019561;28;20044;-66
2024/02/20 01:12:26;;;;;;;65.78;9.20;;;;;;;;;;5024795;28;20421;-66
2024/02/20 01:14:52;;;;;;;65.82;8.65;;;;;;;;;;5021429;28;20045;-66
2024/02/20 01:17:18;;;;;;;58.00;6.80;;;;;;;;;;5020756;28;20033;-66
2024/02/20 01:19:44;;;;;;;52.13;7.35;;;;;;;;;;5020426;28;20449;-66
2024/02/20 01:22:11;;;;;;;46.88;7.43;;;;;;;;;;5017394;28;20144;-66
2024/02/20 01:24:37;;;;;;;53.20;7.18;;;;;;;;;;5019533;28;20528;-66
2024/02/20 01:27:04;;;;;;;61.60;7.05;;;;;;;;;;5022308;28;20041;-66
2024/02/20 01:29:31;;;;;;;51.83;6.72;;;;;;;;;;5020123;28;20055;-66
2024/02/20 01:31:57;;;;;;;48.30;7.80;;;;;;;;;;5019668;28;20052;-66
2024/02/20 01:34:23;;;;;;;53.67;7.65;;;;;;;;;;5018014;28;20093;-66
2024/02/20 01:36:52;;;;;;;58.42;7.22;;;;;;;;;;5019955;28;20129;-66
2024/02/20 01:39:18;;;;;;;47.85;6.65;;;;;;;;;;5023274;28;20065;-66
2024/02/20 01:41:44;;;;;;;45.95;7.28;;;;;;;;;;5020124;28;20053;-66
2024/02/20 01:44:11;;;;;;;42.78;7.18;;;;;;;;;;5018927;28;20566;-66
2024/02/20 01:46:37;;;;;;;58.00;9.75;;;;;;;;;;5023522;28;20123;-66
2024/02/20 01:49:04;;;;;;;38.90;5.90;;;;;;;;;;5019072;28;20046;-66
2024/02/20 01:51:32;;;;;;;52.85;7.82;;;;;;;;;;5023424;28;20063;-66
2024/02/20 01:53:59;;;;;;;42.50;5.43;;;;;;;;;;5023401;28;20821;-66
2024/02/20 01:56:26;;;;;;;72.18;10.93;;;;;;;;;;5000540;28;20120;-66
2024/02/20 01:58:52;;;;;;;46.42;6.57;;;;;;;;;;5023386;28;21492;-66
2024/02/20 02:01:18;;;;;;;58.13;7.70;;;;;;;;;;5019073;28;20064;-66
2024/02/20 02:03:45;;;;;;;50.70;6.65;;;;;;;;;;5022767;28;20064;-66
2024/02/20 02:06:11;;;;;;;45.00;6.15;;;;;;;;;;5021549;28;20452;-66
2024/02/20 02:08:37;;;;;;;53.78;7.70;;;;;;;;;;5016371;28;20041;-66
2024/02/20 02:11:04;;;;;;;44.58;7.80;;;;;;;;;;5018720;28;20046;-66
2024/02/20 02:13:30;;;;;;;50.20;7.57;;;;;;;;;;5021225;28;20086;-67
2024/02/20 02:15:56;;;;;;;64.07;6.20;;;;;;;;;;5018914;28;20048;-66
2024/02/20 02:18:22;;;;;;;53.05;7.15;;;;;;;;;;5019851;28;20497;-66
2024/02/20 02:20:49;;;;;;;58.05;6.55;;;;;;;;;;5022423;28;20029;-66
2024/02/20 02:23:15;;;;;;;49.42;6.65;;;;;;;;;;5026192;28;20413;-66
2024/02/20 02:25:41;;;;;;;47.92;6.40;;;;;;;;;;5027427;28;20068;-67
2024/02/20 02:28:07;;;;;;;50.03;6.18;;;;;;;;;;5027731;28;20188;-66
2024/02/20 02:30:35;;;;;;;57.17;8.13;;;;;;;;;;5026854;28;20051;-66
2024/02/20 02:33:02;;;;;;;58.45;6.50;;;;;;;;;;5024982;28;20050;-66
2024/02/20 02:35:28;;;;;;;52.47;6.88;;;;;;;;;;5023747;28;20090;-66
2024/02/20 02:37:54;;;;;;;65.05;8.40;;;;;;;;;;5021337;28;20523;-66
2024/02/20 02:40:20;;;;;;;59.65;6.53;;;;;;;;;;5025451;28;20046;-66
2024/02/20 02:42:46;;;;;;;63.65;7.32;;;;;;;;;;5021826;28;20213;-66
2024/02/20 02:45:12;;;;;;;49.30;5.88;;;;;;;;;;5022255;28;20044;-66
2024/02/20 02:47:39;;;;;;;44.08;5.85;;;;;;;;;;5028284;28;20059;-66
2024/02/20 02:50:05;;;;;;;60.88;7.72;;;;;;;;;;5023987;28;20081;-66
2024/02/20 02:52:31;;;;;;;57.83;6.82;;;;;;;;;;5028300;28;20488;-66
2024/02/20 02:54:57;;;;;;;45.28;5.68;;;;;;;;;;5024447;28;20269;-66
2024/02/20 02:57:24;;;;;;;58.95;8.90;;;;;;;;;;5010968;28;20037;-66
2024/02/20 02:59:50;;;;;;;51.25;7.50;;;;;;;;;;5033026;28;20180;-66
2024/02/20 03:02:18;;;;;;;56.30;8.20;;;;;;;;;;5025606;28;20107;-66
2024/02/20 03:04:44;;;;;;;57.00;6.75;;;;;;;;;;5026111;28;20142;-66
2024/02/20 03:07:11;;;;;;;57.35;7.30;;;;;;;;;;5023101;28;20045;-66
2024/02/20 03:09:37;;;;;;;57.00;7.82;;;;;;;;;;5021443;28;20041;-66
2024/02/20 03:12:03;;;;;;;67.70;8.05;;;;;;;;;;5025634;28;20120;-66
2024/02/20 03:14:29;;;;;;;69.13;7.55;;;;;;;;;;5023921;28;20103;-66
2024/02/20 03:16:55;;;;;;;47.17;7.32;;;;;;;;;;5026620;28;20455;-66
2024/02/20 03:19:22;;;;;;;56.85;6.07;;;;;;;;;;5024283;28;20049;-66
2024/02/20 03:21:48;;;;;;;61.28;7.65;;;;;;;;;;5026122;28;20037;-66
2024/02/20 03:24:14;;;;;;;61.72;7.57;;;;;;;;;;5025747;28;20060;-66
2024/02/20 03:26:40;;;;;;;50.25;6.35;;;;;;;;;;5026612;28;20044;-66
2024/02/20 03:29:07;;;;;;;49.13;6.47;;;;;;;;;;5025752;28;20073;-66
2024/02/20 03:31:34;;;;;;;63.05;8.25;;;;;;;;;;5022985;28;20041;-66
2024/02/20 03:34:01;;;;;;;65.85;8.65;;;;;;;;;;5018428;28;20046;-66
2024/02/20 03:36:27;;;;;;;50.35;6.25;;;;;;;;;;5016936;28;20052;-66
2024/02/20 03:38:53;;;;;;;70.65;7.72;;;;;;;;;;5023744;28;20049;-66
2024/02/20 03:41:19;;;;;;;59.33;7.88;;;;;;;;;;5025404;28;20037;-66
2024/02/20 03:43:46;;;;;;;48.60;6.65;;;;;;;;;;5025170;28;20102;-66
2024/02/20 03:46:12;;;;;;;60.47;7.72;;;;;;;;;;5020224;28;20060;-66
2024/02/20 03:48:38;;;;;;;49.65;7.22;;;;;;;;;;5015276;28;20048;-66
2024/02/20 03:51:04;;;;;;;51.30;6.30;;;;;;;;;;5019333;28;20167;-66
2024/02/20 03:53:31;;;;;;;53.15;7.18;;;;;;;;;;5015771;28;20090;-66
2024/02/20 03:55:57;;;;;;;53.78;9.60;;;;;;;;;;5026866;28;20113;-66
2024/02/20 03:58:23;;;;;;;44.40;8.80;;;;;;;;;;5027474;28;20048;-66
2024/02/20 04:00:49;;;;;;;51.85;6.40;;;;;;;;;;5028433;28;20746;-66
2024/02/20 04:03:16;;;;;;;49.63;6.30;;;;;;;;;;5029034;28;20053;-66
2024/02/20 04:05:42;;;;;;;58.17;7.63;;;;;;;;;;5027040;28;20041;-66
2024/02/20 04:08:08;;;;;;;47.15;6.63;;;;;;;;;;5033855;28;20231;-66
2024/02/20 04:10:34;;;;;;;53.22;5.93;;;;;;;;;;5032925;28;20040;-66
2024/02/20 04:13:00;;;;;;;57.10;7.18;;;;;;;;;;5028822;28;20397;-66
2024/02/20 04:15:27;;;;;;;51.78;6.38;;;;;;;;;;5033374;28;20040;-66
2024/02/20 04:17:53;;;;;;;56.60;7.05;;;;;;;;;;5028023;28;20049;-66
2024/02/20 04:20:19;;;;;;;52.92;6.30;;;;;;;;;;5028248;28;20095;-66
2024/02/20 04:22:45;;;;;;;50.60;5.97;;;;;;;;;;5029268;28;20460;-66
2024/02/20 04:25:11;;;;;;;45.58;6.07;;;;;;;;;;5028428;28;20451;-66
2024/02/20 04:27:38;;;;;;;59.67;8.27;;;;;;;;;;5028904;28;20041;-66
2024/02/20 04:30:06;;;;;;;53.17;6.43;;;;;;;;;;5031964;28;20519;-66
2024/02/20 04:32:32;;;;;;;53.72;6.38;;;;;;;;;;5028162;28;20041;-66
2024/02/20 04:34:58;;;;;;;57.63;6.68;;;;;;;;;;5035029;28;20180;-66
2024/02/20 04:37:24;;;;;;;52.35;8.73;;;;;;;;;;5023674;28;20029;-66
2024/02/20 04:39:51;;;;;;;41.47;5.50;;;;;;;;;;5024261;28;20156;-66
2024/02/20 04:42:21;;;;;;;43.72;7.32;;;;;;;;;;5028072;28;20128;-65
2024/02/20 04:44:48;;;;;;;46.13;6.75;;;;;;;;;;5021888;28;20053;-66
2024/02/20 04:47:14;;;;;;;39.85;4.95;;;;;;;;;;5028359;28;20114;-66
2024/02/20 04:49:41;;;;;;;45.75;7.28;;;;;;;;;;5032035;28;20063;-66
2024/02/20 04:52:07;;;;;;;64.88;6.50;;;;;;;;;;5026038;28;20222;-66
2024/02/20 04:54:33;;;;;;;45.70;5.90;;;;;;;;;;5023591;28;21567;-66
2024/02/20 04:56:59;;;;;;;47.90;8.93;;;;;;;;;;5022434;28;20045;-67
2024/02/20 04:59:26;;;;;;;39.10;6.47;;;;;;;;;;5018112;28;20072;-66
2024/02/20 05:01:52;;;;;;;52.95;6.13;;;;;;;;;;5020875;28;20053;-66
2024/02/20 05:04:19;;;;;;;47.15;5.90;;;;;;;;;;5023209;28;20053;-66
2024/02/20 05:06:45;;;;;;;55.58;7.25;;;;;;;;;;5026229;28;20113;-66
2024/02/20 05:09:13;;;;;;;54.63;8.43;;;;;;;;;;5019413;28;20057;-66
2024/02/20 05:11:40;;;;;;;47.67;7.85;;;;;;;;;;5018058;28;20103;-66
2024/02/20 05:14:06;;;;;;;56.65;6.80;;;;;;;;;;5017981;28;20418;-66
2024/02/20 05:16:32;;;;;;;54.80;9.38;;;;;;;;;;5020131;28;20048;-66
2024/02/20 05:18:58;;;;;;;49.78;6.50;;;;;;;;;;5022263;28;20046;-66
2024/02/20 05:21:25;;;;;;;48.63;6.97;;;;;;;;;;5022224;28;20089;-66
2024/02/20 05:23:51;;;;;;;54.30;6.25;;;;;;;;;;5019900;28;20078;-66
2024/02/20 05:26:17;;;;;;;45.05;7.18;;;;;;;;;;5020596;28;20080;-66
2024/02/20 05:28:43;;;;;;;53.60;7.22;;;;;;;;;;5023045;28;20061;-66
2024/02/20 05:31:32;;;;;;;69.55;9.38;;;;;;;;;;5017894;28;20132;-66
2024/02/20 05:33:59;;;;;;;57.03;6.57;;;;;;;;;;5018803;28;20211;-66
2024/02/20 05:36:25;;;;;;;52.47;8.10;;;;;;;;;;5018053;28;20056;-66
2024/02/20 05:38:53;;;;;;;54.28;6.85;;;;;;;;;;5019092;28;21724;-66
2024/02/20 05:41:20;;;;;;;48.83;6.70;;;;;;;;;;5020893;28;20037;-66
2024/02/20 05:43:46;;;;;;;56.25;7.30;;;;;;;;;;5026808;28;20086;-66
2024/02/20 05:46:13;;;;;;;47.03;5.82;;;;;;;;;;5018676;28;20486;-66
2024/02/20 05:48:41;;;;;;;46.67;8.55;;;;;;;;;;5023644;28;20099;-66
2024/02/20 05:51:08;;;;;;;57.22;6.75;;;;;;;;;;5021108;28;20442;-66
2024/02/20 05:53:34;;;;;;;55.42;8.13;;;;;;;;;;5018091;28;20521;-66
2024/02/20 05:56:00;;;;;;;47.75;5.80;;;;;;;;;;5019311;28;20065;-66
2024/02/20 05:58:26;;;;;;;47.42;7.72;;;;;;;;;;5018899;28;20503;-66
2024/02/20 06:00:52;;;;;;;40.00;6.90;;;;;;;;;;5019355;28;20037;-66
2024/02/20 06:03:19;;;;;;;43.80;8.38;;;;;;;;;;5016920;28;20065;-67
2024/02/20 06:05:45;;;;;;;57.88;7.43;;;;;;;;;;5018657;28;20144;-66
2024/02/20 06:08:11;;;;;;;52.42;6.35;;;;;;;;;;5019069;28;21980;-66
2024/02/20 06:10:37;;;;;;;63.38;8.68;;;;;;;;;;5019425;28;20144;-66
2024/02/20 06:13:03;;;;;;;49.22;7.35;;;;;;;;;;5019622;28;20417;-66
2024/02/20 06:15:30;;;;;;;45.08;6.63;;;;;;;;;;5022893;28;20576;-66
2024/02/20 06:17:56;;;;;;;53.15;6.65;;;;;;;;;;5023318;28;20147;-66
2024/02/20 06:20:22;;;;;;;53.70;7.97;;;;;;;;;;5018355;28;20033;-66
2024/02/20 06:22:48;;;;;;;65.40;8.75;;;;;;;;;;5019806;28;20066;-66
2024/02/20 06:25:15;;;;;;;45.05;5.70;;;;;;;;;;4999512;28;21768;-66
2024/02/20 06:27:45;;;;;;;52.95;6.95;;;;;;;;;;5017784;28;20053;-66
2024/02/20 06:30:12;;;;;;;52.78;6.38;;;;;;;;;;5022486;28;20104;-66
2024/02/20 06:32:39;;;;;;;51.90;7.65;;;;;;;;;;5025225;28;20044;-66
2024/02/20 06:35:08;;;;;;;89.93;9.80;;;;;;;;;;5024959;28;20496;-66
2024/02/20 06:37:34;;;;;;;57.13;7.63;;;;;;;;;;5005480;28;20052;-66
2024/02/20 06:40:01;;;;;;;57.53;7.35;;;;;;;;;;5017086;28;20053;-66
2024/02/20 06:42:29;;;;;;;54.75;6.80;;;;;;;;;;5020785;28;20037;-66
2024/02/20 06:44:55;;;;;;;53.15;7.00;;;;;;;;;;5030915;28;20065;-66
2024/02/20 06:47:21;;;;;;;57.92;8.13;;;;;;;;;;5025046;28;20474;-66
2024/02/20 06:49:47;;;;;;;52.90;6.88;;;;;;;;;;5021212;28;20108;-66
2024/02/20 06:52:14;;;;;;;48.92;6.85;;;;;;;;;;5023841;28;20464;-66
2024/02/20 06:54:40;;;;;;;62.72;7.30;;;;;;;;;;5022129;28;20061;-66
2024/02/20 06:57:07;;;;;;;61.33;8.63;;;;;;;;;;5020911;28;20107;-66
2024/02/20 06:59:34;;;;;;;73.78;8.13;;;;;;;;;;5016406;28;20045;-67
2024/02/20 07:02:00;;;;;;;62.72;7.50;;;;;;;;;;5019702;28;20094;-66
2024/02/20 07:04:26;;;;;;;62.67;9.30;;;;;;;;;;5020306;28;20144;-66
2024/02/20 07:06:53;;;;;;;46.17;7.50;;;;;;;;;;5020073;28;20050;-66
2024/02/20 07:09:19;;;;;;;81.25;11.55;;;;;;;;;;5021907;28;20049;-66
2024/02/20 07:11:46;;;;;;;64.25;9.23;;;;;;;;;;5023493;28;20045;-66
2024/02/20 07:14:12;;;;;;;68.18;8.77;;;;;;;;;;5021755;28;20073;-66
2024/02/20 07:16:39;;;;;;;64.53;9.38;;;;;;;;;;5023330;28;20034;-67
2024/02/20 07:19:05;;;;;;;60.65;8.18;;;;;;;;;;5020698;28;20050;-66
2024/02/20 07:21:31;;;;;;;72.70;9.02;;;;;;;;;;5024927;28;20550;-66
2024/02/20 07:23:57;;;;;;;63.92;8.10;;;;;;;;;;5024206;28;20058;-66
2024/02/20 07:26:27;;;;;;;64.30;7.90;;;;;;;;;;5022784;28;20371;-66
2024/02/20 07:28:53;;;;;;;55.95;8.80;;;;;;;;;;5022898;28;20362;-66
2024/02/20 07:31:23;;;;;;;77.53;8.73;;;;;;;;;;5024499;28;20041;-66
2024/02/20 07:33:49;;;;;;;64.40;8.05;;;;;;;;;;5025817;28;20056;-66
2024/02/20 07:36:15;;;;;;;51.30;7.93;;;;;;;;;;5024481;28;20127;-66
2024/02/20 07:38:43;;;;;;;63.85;10.38;;;;;;;;;;5022593;28;20060;-66
2024/02/20 07:41:09;;;;;;;65.28;11.25;;;;;;;;;;5022643;28;20080;-66
2024/02/20 07:43:36;;;;;;;75.10;8.70;;;;;;;;;;5013953;28;20061;-66
2024/02/20 07:46:02;;;;;;;62.33;8.30;;;;;;;;;;5014829;28;20034;-65
2024/02/20 07:48:29;;;;;;;56.30;7.95;;;;;;;;;;5017786;28;20042;-66
2024/02/20 07:50:55;;;;;;;57.33;8.30;;;;;;;;;;5019051;28;20049;-66
2024/02/20 07:53:22;;;;;;;54.78;9.85;;;;;;;;;;5015304;28;20050;-66
2024/02/20 07:55:48;;;;;;;71.35;9.38;;;;;;;;;;5017578;28;20033;-66
2024/02/20 07:58:14;;;;;;;61.28;10.52;;;;;;;;;;5018644;28;20046;-65
2024/02/20 08:00:40;;;;;;;60.53;10.13;;;;;;;;;;5014790;28;20147;-66
2024/02/20 08:03:07;;;;;;;53.55;7.88;;;;;;;;;;5014802;28;20525;-66
2024/02/20 08:05:33;;;;;;;60.90;8.98;;;;;;;;;;5012318;28;20033;-65
2024/02/20 08:07:59;;;;;;;62.03;9.43;;;;;;;;;;5022579;28;20034;-66
2024/02/20 08:10:27;;;;;;;51.85;8.40;;;;;;;;;;5013766;28;20094;-70
2024/02/20 08:12:53;;;;;;;54.58;8.57;;;;;;;;;;5025472;28;20041;-71
2024/02/20 08:15:19;;;;;;;68.90;10.38;;;;;;;;;;5021522;28;20121;-70
2024/02/20 08:17:45;;;;;;;44.30;8.23;;;;;;;;;;5025903;28;20228;-77
2024/02/20 08:20:12;;;;;;;72.55;10.43;;;;;;;;;;5024142;28;20141;-67
2024/02/20 08:22:38;;;;;;;54.50;8.68;;;;;;;;;;5023427;28;20045;-72
2024/02/20 08:25:05;;;;;;;71.20;8.70;;;;;;;;;;5018763;28;20086;-66
2024/02/20 08:27:31;;;;;;;56.00;9.02;;;;;;;;;;5022318;28;20958;-66
2024/02/20 08:29:58;;;;;;;55.33;10.35;;;;;;;;;;5019689;28;20346;-67
2024/02/20 08:32:24;;;;;;;50.03;8.55;;;;;;;;;;5023168;28;20558;-72
2024/02/20 08:34:51;;;;;;;63.40;9.77;;;;;;;;;;5021701;28;20126;-66
2024/02/20 08:37:17;;;;;;;63.00;9.02;;;;;;;;;;5023055;28;20045;-66
2024/02/20 08:39:44;;;;;;;74.75;9.85;;;;;;;;;;5021564;28;20041;-66
2024/02/20 08:42:10;;;;;;;66.78;8.43;;;;;;;;;;5022153;28;20045;-67
2024/02/20 08:44:36;;;;;;;44.95;9.05;;;;;;;;;;5034579;28;20053;-66
2024/02/20 08:47:03;;;;;;;57.40;8.63;;;;;;;;;;5033707;28;20045;-66
2024/02/20 08:49:29;;;;;;;59.80;8.65;;;;;;;;;;5030661;28;20430;-66
2024/02/20 08:51:55;;;;;;;57.88;10.32;;;;;;;;;;5033351;28;20053;-66
2024/02/20 08:54:21;;;;;;;65.82;11.50;;;;;;;;;;5034108;28;20047;-66
2024/02/20 08:56:48;;;;;;;45.08;9.35;;;;;;;;;;5024774;28;20346;-66
2024/02/20 08:59:14;;;;;;;53.03;9.05;;;;;;;;;;5024077;28;20200;-66
2024/02/20 09:01:40;;;;;;;53.72;9.13;;;;;;;;;;5028271;28;20042;-66
2024/02/20 09:04:08;;;;;;;50.67;8.23;;;;;;;;;;5020168;28;20438;-66
2024/02/20 09:06:35;;;;;;;55.63;10.25;;;;;;;;;;5031794;28;20037;-66
2024/02/20 09:09:01;;;;;;;72.72;10.77;;;;;;;;;;5030134;28;20132;-66
2024/02/20 09:11:28;;;;;;;54.25;8.75;;;;;;;;;;5035367;28;20053;-66
2024/02/20 09:13:54;;;;;;;61.85;8.85;;;;;;;;;;5043503;28;20346;-66
2024/02/20 09:16:20;;;;;;;70.95;11.25;;;;;;;;;;5034145;28;20114;-66
2024/02/20 09:18:46;;;;;;;63.15;11.65;;;;;;;;;;5041852;28;20049;-66
2024/02/20 09:21:16;;;;;;;64.00;9.77;;;;;;;;;;5040437;28;20043;-66
2024/02/20 09:23:43;;;;;;;64.22;11.07;;;;;;;;;;5041656;28;20059;-66
2024/02/20 09:26:10;;;;;;;67.45;10.75;;;;;;;;;;5042577;28;20068;-66
2024/02/20 09:28:37;;;;;;;57.70;10.38;;;;;;;;;;5034844;28;20071;-66
2024/02/20 09:31:03;;;;;;;63.22;11.55;;;;;;;;;;5024806;28;20072;-66
2024/02/20 09:33:30;;;;;;;64.70;10.55;;;;;;;;;;5028579;28;20041;-66
2024/02/20 09:35:56;;;;;;;63.08;10.10;;;;;;;;;;5029836;28;20049;-66
2024/02/20 09:38:23;;;;;;;65.22;10.15;;;;;;;;;;5028188;28;20090;-66
2024/02/20 09:40:49;;;;;;;51.55;9.57;;;;;;;;;;5028389;28;20077;-66
2024/02/20 09:43:17;;;;;;;68.53;11.05;;;;;;;;;;5033142;28;20072;-66
2024/02/20 09:45:45;;;;;;;46.85;8.88;;;;;;;;;;5030162;28;20037;-66
2024/02/20 09:48:14;;;;;;;50.53;10.10;;;;;;;;;;5032524;28;20049;-66
2024/02/20 09:50:42;;;;;;;53.05;9.93;;;;;;;;;;5030738;28;20098;-66
2024/02/20 09:53:08;;;;;;;61.83;9.77;;;;;;;;;;5031246;28;20119;-66
2024/02/20 09:55:34;;;;;;;50.80;9.57;;;;;;;;;;5029288;28;20113;-66
2024/02/20 09:58:01;;;;;;;49.42;8.50;;;;;;;;;;5032828;28;20091;-66
2024/02/20 10:00:28;;;;;;;43.65;9.25;;;;;;;;;;5028461;28;20466;-66
2024/02/20 10:02:55;;;;;;;59.42;10.13;;;;;;;;;;5028585;28;20048;-66
2024/02/20 10:05:21;;;;;;;46.97;8.35;;;;;;;;;;5037338;28;20122;-66
2024/02/20 10:07:47;;;;;;;52.88;12.27;;;;;;;;;;5036695;28;20053;-66
2024/02/20 10:10:15;;;;;;;58.72;9.57;;;;;;;;;;5033862;28;20072;-66
2024/02/20 10:12:42;;;;;;;46.25;8.45;;;;;;;;;;5035133;28;20071;-66
2024/02/20 10:15:09;;;;;;;54.03;11.82;;;;;;;;;;5031347;28;20072;-66
2024/02/20 10:17:36;;;;;;;47.53;9.00;;;;;;;;;;5038584;28;20060;-66
2024/02/20 10:20:10;;;;;;;50.40;10.23;;;;;;;;;;5038276;28;20049;-66
2024/02/20 10:22:36;;;;;;;;;;;;;;;;;;5027413;28;20457;-66
2024/02/20 10:25:03;;;;;;;38.72;8.13;;;;;;;;;;5032400;28;20296;-66
2024/02/20 10:27:29;;;;;;;50.67;8.77;;;;;;;;;;5035100;28;20061;-66
2024/02/20 10:29:56;;;;;;;43.45;8.05;;;;;;;;;;5035951;28;20135;-66
2024/02/20 10:32:22;;;;;;;47.38;9.20;;;;;;;;;;5035554;28;20444;-66
2024/02/20 10:34:58;;;;;;;40.10;7.43;;;;;;;;;;5035585;28;20041;-66
2024/02/20 10:37:27;;;;;;;54.00;7.55;;;;;;;;;;5036088;28;20132;-66
2024/02/20 10:40:04;;;;;;;46.10;9.57;;;;;;;;;;5039363;28;20493;-66
2024/02/20 10:42:35;;;;;;;52.63;10.40;;;;;;;;;;5037858;28;20451;-66
2024/02/20 10:45:06;;;;;;;50.20;9.23;;;;;;;;;;5036849;28;20055;-66
2024/02/20 10:47:33;;;;;;;43.67;10.50;;;;;;;;;;5040266;28;20041;-66
2024/02/20 10:50:00;;;;;;;39.92;8.15;;;;;;;;;;5031886;28;20511;-66
2024/02/20 10:52:28;;;;;;;55.40;9.80;;;;;;;;;;5039419;28;20049;-66
2024/02/20 10:54:55;;;;;;;49.75;9.35;;;;;;;;;;5037458;28;20052;-66
2024/02/20 10:57:21;;;;;;;54.22;9.90;;;;;;;;;;5038949;28;20037;-66
2024/02/20 10:59:52;;;;;;;51.75;9.73;;;;;;;;;;5035388;28;20465;-66
2024/02/20 11:02:19;;;;;;;38.63;8.75;;;;;;;;;;5026967;28;20758;-66
2024/02/20 11:04:46;;;;;;;50.65;9.48;;;;;;;;;;5027185;28;20417;-66
2024/02/20 11:07:12;;;;;;;46.90;8.93;;;;;;;;;;5025947;28;20481;-66
2024/02/20 11:09:39;;;;;;;46.63;10.85;;;;;;;;;;5024035;28;20096;-66
2024/02/20 11:12:07;;;;;;;44.30;9.07;;;;;;;;;;5026088;28;20635;-66
2024/02/20 11:14:33;;;;;;;46.78;8.57;;;;;;;;;;5024941;28;20041;-66
2024/02/20 11:16:59;;;;;;;40.20;8.07;;;;;;;;;;5008503;28;20557;-66
2024/02/20 11:19:26;;;;;;;39.65;10.90;;;;;;;;;;5016505;28;20376;-66
2024/02/20 11:21:53;;;;;;;42.60;8.98;;;;;;;;;;5030094;28;20520;-66
2024/02/20 11:24:19;;;;;;;42.00;8.18;;;;;;;;;;5027806;28;20037;-66
2024/02/20 11:26:47;;;;;;;36.50;10.77;;;;;;;;;;5025455;28;20048;-66
2024/02/20 11:29:16;;;;;;;32.83;7.38;;;;;;;;;;5024143;28;20061;-66
2024/02/20 11:31:42;;;;;;;46.35;8.00;;;;;;;;;;5005457;28;20045;-66
2024/02/20 11:34:17;;;;;;;36.53;8.88;;;;;;;;;;5020524;28;20061;-66
2024/02/20 11:36:44;;;;;;;40.17;7.95;;;;;;;;;;5018777;28;20041;-66
2024/02/20 11:39:14;;;;;;;38.40;7.72;;;;;;;;;;5018817;28;20349;-66
2024/02/20 11:41:40;;;;;;;45.15;9.95;;;;;;;;;;5020313;28;20084;-66
2024/02/20 11:44:07;;;;;;;35.20;6.93;;;;;;;;;;5024072;28;20064;-66
2024/02/20 11:46:33;;;;;;;33.35;7.15;;;;;;;;;;4998842;28;20116;-66
2024/02/20 11:49:00;;;;;;;36.50;7.95;;;;;;;;;;5002935;28;20109;-67
2024/02/20 11:51:27;;;;;;;45.42;8.63;;;;;;;;;;5025933;28;20082;-67
2024/02/20 11:54:05;;;;;;;35.28;8.40;;;;;;;;;;5023924;28;20481;-67
2024/02/20 11:56:32;;;;;;;38.08;8.48;;;;;;;;;;5021542;28;20061;-66
2024/02/20 11:58:58;;;;;;;35.00;6.72;;;;;;;;;;5022863;28;20083;-66
2024/02/20 12:01:26;;;;;;;36.20;7.57;;;;;;;;;;5025854;28;20079;-66
2024/02/20 12:03:52;;;;;;;38.70;7.90;;;;;;;;;;5030523;28;20037;-67
2024/02/20 12:06:26;;;;;;;39.38;8.88;;;;;;;;;;5023221;28;20073;-66
2024/02/20 12:08:56;;;;;;;39.30;8.75;;;;;;;;;;5017748;28;20050;-66
2024/02/20 12:11:26;;;;;;;39.00;8.50;;;;;;;;;;5018889;28;20042;-67
2024/02/20 12:13:54;;;;;;;38.47;8.52;;;;;;;;;;5021075;28;20061;-81
2024/02/20 12:16:22;;;;;;;43.35;8.50;;;;;;;;;;5017309;28;20108;-67
2024/02/20 12:18:50;;;;;;;38.15;8.38;;;;;;;;;;5020265;28;20076;-65
2024/02/20 12:21:16;;;;;;;36.22;9.13;;;;;;;;;;5024935;28;20038;-66
2024/02/20 12:23:51;;;;;;;36.55;8.85;;;;;;;;;;5023129;28;20077;-65
2024/02/20 12:26:19;;;;;;;37.17;8.02;;;;;;;;;;5023265;28;20053;-65
2024/02/20 12:28:46;;;;;;;35.40;8.30;;;;;;;;;;5027119;28;20057;-65
2024/02/20 12:31:12;;;;;;;34.97;8.43;;;;;;;;;;5045321;28;20445;-65
2024/02/20 12:33:38;;;;;;;32.97;7.35;;;;;;;;;;5023685;28;20520;-65
2024/02/20 12:36:04;;;;;;;48.90;10.52;;;;;;;;;;5031183;28;20045;-65
2024/02/20 12:38:31;;;;;;;36.95;7.93;;;;;;;;;;5038899;28;20127;-65
2024/02/20 12:40:57;;;;;;;36.95;8.15;;;;;;;;;;5027498;28;20040;-65
2024/02/20 12:43:23;;;;;;;35.40;10.43;;;;;;;;;;5047024;28;20033;-65
2024/02/20 12:45:49;;;;;;;31.38;6.60;;;;;;;;;;5027658;28;20122;-65
2024/02/20 12:48:16;;;;;;;35.13;7.20;;;;;;;;;;5028603;28;20435;-65
2024/02/20 12:50:44;;;;;;;32.13;7.03;;;;;;;;;;5046049;28;20042;-65
2024/02/20 12:53:10;;;;;;;33.47;7.55;;;;;;;;;;5030951;28;20065;-65
2024/02/20 12:55:37;;;;;;;39.92;7.80;;;;;;;;;;5028468;28;20049;-65
2024/02/20 12:58:04;;;;;;;38.35;6.60;;;;;;;;;;5005534;28;20041;-65
2024/02/20 13:00:30;;;;;;;33.50;7.05;;;;;;;;;;5044496;28;20045;-65
2024/02/20 13:02:58;;;;;;;34.13;5.88;;;;;;;;;;5005181;28;20045;-65
2024/02/20 13:05:25;;;;;;;34.20;6.28;;;;;;;;;;5043074;28;20063;-65
2024/02/20 13:07:52;;;;;;;36.67;8.25;;;;;;;;;;5029941;28;20097;-65
2024/02/20 13:10:18;;;;;;;32.97;6.10;;;;;;;;;;5026605;28;20164;-65
2024/02/20 13:12:44;;;;;;;41.17;7.07;;;;;;;;;;5045967;28;20614;-65
2024/02/20 13:15:10;;;;;;;31.08;6.43;;;;;;;;;;5046931;28;20088;-65
2024/02/20 13:17:37;;;;;;;31.23;5.82;;;;;;;;;;5046530;28;20049;-65
2024/02/20 13:20:04;;;;;;;33.38;7.07;;;;;;;;;;5029441;28;20164;-65
2024/02/20 13:22:31;;;;;;;33.10;6.93;;;;;;;;;;5044089;28;20459;-65
2024/02/20 13:24:57;;;;;;;36.25;7.47;;;;;;;;;;5046632;28;20033;-65
2024/02/20 13:27:24;;;;;;;37.70;8.52;;;;;;;;;;5042854;28;20719;-66
2024/02/20 13:29:50;;;;;;;29.58;6.68;;;;;;;;;;5023676;28;20063;-65
2024/02/20 13:32:17;;;;;;;39.85;6.03;;;;;;;;;;5023818;28;20042;-65
2024/02/20 13:34:43;;;;;;;41.70;6.32;;;;;;;;;;5022267;28;20191;-65
2024/02/20 13:37:09;;;;;;;32.28;5.63;;;;;;;;;;5019219;28;20048;-65
2024/02/20 13:39:36;;;;;;;37.15;7.38;;;;;;;;;;5000521;28;20056;-65
2024/02/20 13:42:02;;;;;;;31.90;5.80;;;;;;;;;;5020515;28;20072;-65
2024/02/20 13:44:29;;;;;;;36.03;5.68;;;;;;;;;;5023904;28;20111;-65
2024/02/20 13:46:55;;;;;;;33.05;6.72;;;;;;;;;;5021048;28;20058;-65
2024/02/20 13:49:22;;;;;;;29.40;5.80;;;;;;;;;;5029099;28;20543;-65
2024/02/20 13:51:49;;;;;;;41.92;7.40;;;;;;;;;;5026767;28;20470;-65
2024/02/20 13:54:15;;;;;;;35.65;7.43;;;;;;;;;;5027797;28;20088;-65
2024/02/20 13:56:41;;;;;;;34.97;6.28;;;;;;;;;;5029151;28;20045;-65
2024/02/20 13:59:08;;;;;;;32.70;5.25;;;;;;;;;;5027223;28;20128;-65
2024/02/20 14:01:34;;;;;;;27.48;4.85;;;;;;;;;;5027720;28;20048;-65
2024/02/20 14:04:00;;;;;;;27.00;5.57;;;;;;;;;;5022399;28;20081;-66
2024/02/20 14:06:26;;;;;;;33.60;6.28;;;;;;;;;;5021011;28;20053;-65
2024/02/20 14:08:53;;;;;;;37.40;6.82;;;;;;;;;;5024021;28;20121;-65
2024/02/20 14:11:19;;;;;;;29.92;5.18;;;;;;;;;;5028434;28;20045;-65
2024/02/20 14:13:46;;;;;;;29.63;5.97;;;;;;;;;;5028841;28;20133;-65
2024/02/20 14:16:14;;;;;;;27.08;5.40;;;;;;;;;;5009530;28;20048;-65
2024/02/20 14:18:40;;;;;;;39.92;6.32;;;;;;;;;;5029536;28;20048;-65
2024/02/20 14:21:07;;;;;;;33.40;5.65;;;;;;;;;;5024329;28;20482;-65
2024/02/20 14:23:34;;;;;;;35.28;7.38;;;;;;;;;;5028749;28;20067;-65
2024/02/20 14:26:00;;;;;;;31.48;5.72;;;;;;;;;;5025481;28;20058;-66